Time;durP1;ratioP1;P1;durP2;ratioP2;P2;SDS_P1;SDS_P2;PMS_P1;PMS_P2;Temp;Humidity;BMP_temperature;BMP_pressure;BME280_temperature;BME280_humidity;BME280_pressure;Samples;Min_cycle;Max_cycle;Signal;HPM_P1;HPM_P2
2021/05/26 00:00:49;;;;;;;4.20;3.90;;;29.20;56.10;;;;;;5100950;28;20556;-39
2021/05/26 00:03:15;;;;;;;3.80;3.50;;;29.10;56.10;;;;;;5102514;28;20092;-42
2021/05/26 00:05:41;;;;;;;3.90;3.60;;;29.20;56.20;;;;;;5105739;28;20044;-41
2021/05/26 00:08:07;;;;;;;3.97;3.67;;;29.10;56.10;;;;;;5105481;28;20043;-42
2021/05/26 00:10:33;;;;;;;3.53;3.23;;;29.10;56.20;;;;;;5105515;28;20035;-39
2021/05/26 00:13:00;;;;;;;3.80;3.50;;;29.10;56.10;;;;;;5105392;28;20042;-40
2021/05/26 00:15:26;;;;;;;3.80;3.50;;;29.10;56.20;;;;;;5105429;28;20271;-41
2021/05/26 00:17:52;;;;;;;4.10;3.80;;;29.00;56.10;;;;;;5105204;28;20264;-40
2021/05/26 00:20:18;;;;;;;4.00;3.70;;;29.10;56.20;;;;;;5105132;28;20066;-39
2021/05/26 00:22:45;;;;;;;3.83;3.53;;;29.00;56.10;;;;;;5104741;28;20058;-41
2021/05/26 00:25:12;;;;;;;4.03;3.72;;;29.00;56.10;;;;;;5105085;28;20055;-41
2021/05/26 00:27:39;;;;;;;3.95;3.65;;;29.00;56.20;;;;;;5105097;28;20806;-44
2021/05/26 00:30:06;;;;;;;3.90;3.60;;;29.00;56.20;;;;;;5105235;28;20035;-41
2021/05/26 00:32:32;;;;;;;;;;;29.00;56.20;;;;;;5102967;28;20276;-40
2021/05/26 00:34:58;;;;;;;3.97;3.67;;;29.00;56.70;;;;;;5104849;28;19919;-41
2021/05/26 00:37:24;;;;;;;3.70;3.40;;;28.90;56.10;;;;;;5105090;28;20035;-43
2021/05/26 00:39:51;;;;;;;3.70;3.40;;;28.90;56.70;;;;;;5104752;28;20437;-39
2021/05/26 00:42:20;;;;;;;;;;;28.90;56.20;;;;;;5105537;28;20726;-39
2021/05/26 00:44:53;;;;;;;4.40;4.03;;;28.90;56.30;;;;;;5104450;28;19979;-40
2021/05/26 00:47:49;;;;;;;3.85;3.55;;;28.90;56.30;;;;;;5104767;28;20127;-39
2021/05/26 00:50:28;;;;;;;4.30;3.90;;;28.90;56.40;;;;;;5103832;28;20081;-41
2021/05/26 00:53:05;;;;;;;4.20;3.80;;;28.90;56.30;;;;;;5104754;28;20043;-42
2021/05/26 00:55:32;;;;;;;3.80;3.50;;;28.90;56.40;;;;;;5104590;28;20050;-39
2021/05/26 00:57:59;;;;;;;4.35;3.95;;;28.80;56.20;;;;;;5104665;28;20036;-39
2021/05/26 01:00:25;;;;;;;4.35;3.95;;;28.90;56.40;;;;;;5104745;28;20066;-40
2021/05/26 01:02:52;;;;;;;3.75;3.45;;;28.90;56.80;;;;;;5103838;28;20445;-39
2021/05/26 01:05:20;;;;;;;4.43;3.65;;;28.80;56.20;;;;;;5103379;28;20074;-41
2021/05/26 01:07:46;;;;;;;4.03;3.72;;;28.80;56.30;;;;;;5104341;28;20028;-40
2021/05/26 01:10:14;;;;;;;4.20;3.90;;;28.80;56.20;;;;;;5095550;28;20027;-40
2021/05/26 01:12:41;;;;;;;3.95;3.63;;;28.80;56.30;;;;;;5088309;28;20300;-40
2021/05/26 01:15:08;;;;;;;4.25;3.95;;;28.70;56.30;;;;;;5102362;28;20119;-41
2021/05/26 01:17:35;;;;;;;4.40;4.00;;;28.70;56.20;;;;;;5104269;28;20056;-40
2021/05/26 01:20:02;;;;;;;4.38;4.05;;;28.80;56.40;;;;;;5103458;28;20028;-41
2021/05/26 01:22:29;;;;;;;4.28;3.88;;;28.70;56.30;;;;;;5104110;28;20077;-40
2021/05/26 01:24:55;;;;;;;;;;;28.70;56.40;;;;;;5104231;28;20036;-40
2021/05/26 01:27:22;;;;;;;4.80;4.40;;;28.70;56.40;;;;;;5104130;28;19908;-40
2021/05/26 01:29:49;;;;;;;5.17;4.67;;;28.70;56.50;;;;;;5104035;28;20028;-40
2021/05/26 01:32:15;;;;;;;;;;;28.60;56.40;;;;;;5103549;28;20031;-41
2021/05/26 01:34:42;;;;;;;4.20;3.90;;;28.60;56.40;;;;;;5097981;28;19943;-43
2021/05/26 01:37:08;;;;;;;3.83;3.53;;;28.60;56.40;;;;;;5100154;28;20893;-41
2021/05/26 01:39:35;;;;;;;3.92;3.63;;;28.60;56.40;;;;;;5103162;28;20292;-40
2021/05/26 01:42:01;;;;;;;4.00;3.70;;;28.50;56.40;;;;;;5099636;28;20032;-41
2021/05/26 01:44:27;;;;;;;3.55;3.25;;;28.50;56.40;;;;;;5101572;28;20066;-40
2021/05/26 01:46:53;;;;;;;3.55;3.25;;;28.50;56.30;;;;;;5103813;28;20091;-41
2021/05/26 01:49:20;;;;;;;4.20;3.90;;;28.50;56.30;;;;;;5104129;28;20055;-41
2021/05/26 01:51:46;;;;;;;3.90;3.60;;;28.50;56.50;;;;;;5121876;27;20106;-39
2021/05/26 01:54:12;;;;;;;4.47;4.17;;;28.50;56.50;;;;;;5120566;27;20027;-40
2021/05/26 01:56:38;;;;;;;4.37;4.03;;;28.50;56.50;;;;;;5122860;27;20087;-41
2021/05/26 01:59:04;;;;;;;4.80;4.47;;;28.40;56.50;;;;;;5121778;27;20020;-43
2021/05/26 02:01:31;;;;;;;4.20;3.80;;;28.40;56.60;;;;;;5118047;27;20044;-40
2021/05/26 02:03:57;;;;;;;4.50;4.13;;;28.40;56.50;;;;;;5122807;28;20031;-41
2021/05/26 02:06:25;;;;;;;4.40;4.00;;;28.40;56.60;;;;;;5123509;28;20259;-40
2021/05/26 02:08:53;;;;;;;4.78;4.38;;;28.40;56.60;;;;;;5105551;28;20085;-41
2021/05/26 02:14:07;;;;;;;5.03;4.63;;;28.30;56.60;;;;;;5123281;28;20040;-41
2021/05/26 02:16:34;;;;;;;4.93;4.53;;;28.30;56.60;;;;;;5123063;28;20024;-41
2021/05/26 02:19:00;;;;;;;;;;;28.30;56.70;;;;;;5124041;28;20028;-44
2021/05/26 02:21:27;;;;;;;4.68;4.28;;;28.30;56.70;;;;;;5127228;27;19980;-43
2021/05/26 02:23:53;;;;;;;5.00;4.60;;;28.30;56.60;;;;;;5135943;27;20442;-41
2021/05/26 02:26:19;;;;;;;5.63;5.10;;;28.20;56.60;;;;;;5123189;28;20059;-42
2021/05/26 02:28:45;;;;;;;5.10;4.70;;;28.20;56.60;;;;;;5123370;28;20336;-40
2021/05/26 02:31:12;;;;;;;4.57;4.17;;;28.20;56.60;;;;;;5123466;28;20110;-40
2021/05/26 02:33:38;;;;;;;4.70;4.30;;;28.20;56.70;;;;;;5123255;28;20164;-40
2021/05/26 02:36:05;;;;;;;4.78;4.25;;;28.20;56.70;;;;;;5122718;28;20331;-42
2021/05/26 02:38:32;;;;;;;4.45;4.15;;;28.20;56.80;;;;;;5123237;28;20027;-43
2021/05/26 02:40:58;;;;;;;4.75;4.22;;;28.10;56.70;;;;;;5122544;28;20023;-41
2021/05/26 02:43:24;;;;;;;4.20;3.90;;;28.10;56.70;;;;;;5123072;28;20096;-45
2021/05/26 02:45:50;;;;;;;5.30;4.88;;;28.10;56.70;;;;;;5122863;28;20122;-42
2021/05/26 02:48:17;;;;;;;5.00;4.50;;;28.00;56.70;;;;;;5122994;28;20042;-43
2021/05/26 02:50:43;;;;;;;4.70;4.30;;;28.10;56.80;;;;;;5104266;28;20272;-42
2021/05/26 02:53:10;;;;;;;4.70;4.30;;;28.00;56.70;;;;;;5122958;28;20111;-41
2021/05/26 02:55:36;;;;;;;4.50;4.10;;;28.00;56.70;;;;;;5122694;28;20317;-40
2021/05/26 02:58:02;;;;;;;4.57;4.18;;;28.00;56.60;;;;;;5123088;28;20031;-40
2021/05/26 03:00:28;;;;;;;4.83;4.43;;;28.00;56.60;;;;;;5122985;28;20039;-40
2021/05/26 03:02:55;;;;;;;4.90;4.50;;;28.00;56.70;;;;;;5122474;28;20275;-41
2021/05/26 03:05:21;;;;;;;5.40;5.00;;;27.90;56.60;;;;;;5122483;28;20311;-42
2021/05/26 03:07:48;;;;;;;4.35;4.03;;;27.90;56.60;;;;;;5122782;28;20032;-40
2021/05/26 03:10:17;;;;;;;5.23;4.83;;;27.90;56.60;;;;;;5122252;28;20031;-40
2021/05/26 03:12:43;;;;;;;4.95;4.55;;;27.90;56.60;;;;;;5104349;28;20028;-41
2021/05/26 03:15:12;;;;;;;5.57;5.07;;;27.80;56.50;;;;;;5121076;28;20035;-42
2021/05/26 03:17:38;;;;;;;5.63;5.10;;;27.80;56.60;;;;;;5125822;28;20055;-41
2021/05/26 03:20:06;;;;;;;5.82;5.32;;;27.80;56.50;;;;;;5131939;28;20024;-45
2021/05/26 03:22:33;;;;;;;5.80;5.30;;;27.80;56.90;;;;;;5122494;28;20091;-40
2021/05/26 03:24:59;;;;;;;6.82;6.22;;;27.80;56.60;;;;;;5122475;28;20070;-41
2021/05/26 03:27:33;;;;;;;6.03;5.53;;;27.80;56.70;;;;;;5122909;28;20027;-40
2021/05/26 03:30:00;;;;;;;6.18;5.68;;;27.80;56.80;;;;;;5126494;28;20028;-40
2021/05/26 03:32:26;;;;;;;5.90;5.40;;;27.70;56.90;;;;;;5126439;28;20065;-40
2021/05/26 03:34:52;;;;;;;6.30;5.65;;;27.70;57.00;;;;;;5126652;28;20042;-41
2021/05/26 03:37:20;;;;;;;6.97;6.38;;;27.70;57.10;;;;;;5126141;28;20031;-43
2021/05/26 03:39:46;;;;;;;6.68;6.10;;;27.70;57.00;;;;;;5126206;28;20050;-40
2021/05/26 03:42:12;;;;;;;6.10;5.60;;;27.70;57.20;;;;;;5126414;28;20015;-41
2021/05/26 03:44:39;;;;;;;7.43;6.43;;;27.70;57.00;;;;;;5126084;28;20279;-42
2021/05/26 03:47:05;;;;;;;6.18;5.65;;;27.60;57.00;;;;;;5125792;28;20487;-40
2021/05/26 03:49:31;;;;;;;5.97;5.47;;;27.60;56.80;;;;;;5126354;28;20039;-41
2021/05/26 03:51:58;;;;;;;7.17;5.93;;;27.60;56.80;;;;;;5125962;28;20500;-40
2021/05/26 03:54:24;;;;;;;6.10;5.60;;;27.60;56.70;;;;;;5126262;28;20126;-40
2021/05/26 03:56:50;;;;;;;6.00;5.50;;;27.50;56.70;;;;;;5125759;28;20035;-42
2021/05/26 03:59:16;;;;;;;6.00;5.47;;;27.50;56.70;;;;;;5126044;28;20033;-44
2021/05/26 04:01:42;;;;;;;6.28;5.70;;;27.50;56.60;;;;;;5125791;28;20020;-41
2021/05/26 04:04:08;;;;;;;5.80;5.40;;;27.50;56.70;;;;;;5125883;28;20043;-41
2021/05/26 04:06:35;;;;;;;5.75;5.25;;;27.50;56.60;;;;;;5125632;28;20275;-41
2021/05/26 04:09:01;;;;;;;6.00;5.50;;;27.50;56.40;;;;;;5125623;28;20079;-41
2021/05/26 04:11:27;;;;;;;6.13;5.53;;;27.40;56.50;;;;;;5125413;28;20264;-41
2021/05/26 04:13:53;;;;;;;6.07;5.57;;;27.40;56.30;;;;;;5125850;28;20252;-41
2021/05/26 04:16:20;;;;;;;6.00;5.50;;;27.40;56.40;;;;;;5125406;28;20031;-41
2021/05/26 04:18:46;;;;;;;6.13;5.63;;;27.40;56.50;;;;;;5125718;28;20027;-42
2021/05/26 04:21:12;;;;;;;5.77;5.27;;;27.40;56.50;;;;;;5129732;27;20030;-40
2021/05/26 04:23:38;;;;;;;6.07;5.57;;;27.30;56.70;;;;;;5140257;27;20114;-41
2021/05/26 04:26:04;;;;;;;6.30;5.80;;;27.30;56.60;;;;;;5145709;27;20039;-41
2021/05/26 04:28:30;;;;;;;6.43;5.82;;;27.30;56.70;;;;;;5146173;27;20023;-40
2021/05/26 04:30:57;;;;;;;5.90;5.40;;;27.30;56.70;;;;;;5129116;27;20028;-40
2021/05/26 04:33:24;;;;;;;6.18;5.57;;;27.30;56.90;;;;;;5108360;28;20020;-41
2021/05/26 04:35:50;;;;;;;6.20;5.60;;;27.20;56.70;;;;;;5104675;28;20043;-40
2021/05/26 04:38:16;;;;;;;6.40;5.80;;;27.20;56.80;;;;;;5124493;28;20024;-41
2021/05/26 04:40:43;;;;;;;6.22;5.72;;;27.20;56.90;;;;;;5125215;28;20035;-41
2021/05/26 04:43:09;;;;;;;6.33;5.73;;;27.20;56.70;;;;;;5125099;28;20113;-40
2021/05/26 04:45:35;;;;;;;6.25;5.75;;;27.20;56.50;;;;;;5125008;28;20287;-40
2021/05/26 04:48:01;;;;;;;6.00;5.50;;;27.10;56.50;;;;;;5124800;28;20030;-43
2021/05/26 04:50:27;;;;;;;6.40;5.80;;;27.10;56.50;;;;;;5125539;27;20028;-40
2021/05/26 04:52:54;;;;;;;6.27;5.67;;;27.10;56.50;;;;;;5124783;28;20052;-41
2021/05/26 04:55:20;;;;;;;6.38;5.88;;;27.10;56.60;;;;;;5124777;28;20271;-42
2021/05/26 04:57:56;;;;;;;6.00;5.45;;;27.10;56.50;;;;;;5124720;28;20024;-43
2021/05/26 05:00:22;;;;;;;6.10;5.60;;;27.10;57.00;;;;;;5124906;28;20039;-42
2021/05/26 05:02:48;;;;;;;6.37;5.80;;;27.00;56.40;;;;;;5124856;28;20034;-40
2021/05/26 05:05:15;;;;;;;6.05;5.55;;;27.00;56.40;;;;;;5124754;28;20035;-40
2021/05/26 05:07:42;;;;;;;6.10;5.60;;;27.00;56.40;;;;;;5124380;28;20028;-40
2021/05/26 05:10:09;;;;;;;6.00;5.50;;;26.90;56.40;;;;;;5124398;28;20036;-40
2021/05/26 05:12:35;;;;;;;5.53;5.13;;;27.00;56.50;;;;;;5124553;28;20024;-40
2021/05/26 05:15:01;;;;;;;6.15;5.65;;;26.90;56.50;;;;;;5124468;28;20038;-41
2021/05/26 05:17:27;;;;;;;5.80;5.30;;;26.90;56.50;;;;;;5123953;28;20678;-40
2021/05/26 05:19:53;;;;;;;6.03;5.55;;;26.80;56.40;;;;;;5105726;28;20036;-41
2021/05/26 05:22:19;;;;;;;6.05;5.55;;;26.90;56.50;;;;;;5124334;28;20020;-40
2021/05/26 05:24:45;;;;;;;6.15;5.65;;;26.80;56.50;;;;;;5124181;28;20061;-40
2021/05/26 05:27:12;;;;;;;6.13;5.57;;;26.80;56.50;;;;;;5124160;28;20024;-40
2021/05/26 05:29:38;;;;;;;6.40;5.90;;;26.80;56.50;;;;;;5124148;28;20035;-41
2021/05/26 05:32:04;;;;;;;6.32;5.82;;;26.80;56.50;;;;;;5121180;27;20063;-41
2021/05/26 05:34:30;;;;;;;6.05;5.55;;;26.80;56.50;;;;;;5114554;28;20008;-41
2021/05/26 05:36:56;;;;;;;5.40;4.93;;;26.70;56.50;;;;;;5123941;28;20700;-41
2021/05/26 05:39:23;;;;;;;6.00;5.47;;;26.70;56.50;;;;;;5124036;28;20024;-40
2021/05/26 05:41:49;;;;;;;6.10;5.50;;;26.70;56.60;;;;;;5124190;28;20036;-41
2021/05/26 05:44:15;;;;;;;6.45;5.85;;;26.70;56.60;;;;;;5123783;28;20024;-40
2021/05/26 05:46:41;;;;;;;6.28;5.70;;;26.70;56.60;;;;;;5123802;28;20028;-43
2021/05/26 05:49:07;;;;;;;6.15;5.55;;;26.70;56.60;;;;;;5123884;28;20410;-40
2021/05/26 05:51:33;;;;;;;6.13;5.63;;;26.60;56.60;;;;;;5123180;28;20072;-40
2021/05/26 05:54:00;;;;;;;6.13;5.63;;;26.70;56.70;;;;;;5123729;28;20083;-41
2021/05/26 05:56:26;;;;;;;6.00;5.50;;;26.70;56.70;;;;;;5123809;28;20133;-41
2021/05/26 05:58:52;;;;;;;6.50;5.90;;;26.60;56.60;;;;;;5123581;28;20019;-40
2021/05/26 06:01:18;;;;;;;5.95;5.45;;;26.60;56.70;;;;;;5123569;28;20154;-41
2021/05/26 06:03:44;;;;;;;5.88;5.38;;;26.50;56.60;;;;;;5085300;28;20618;-40
2021/05/26 06:06:10;;;;;;;5.82;5.10;;;26.60;56.70;;;;;;5106034;28;20038;-40
2021/05/26 06:08:37;;;;;;;6.23;5.63;;;26.50;56.60;;;;;;5123258;28;20027;-40
2021/05/26 06:11:03;;;;;;;6.17;5.67;;;26.50;56.70;;;;;;5127998;27;20027;-41
2021/05/26 06:13:29;;;;;;;6.38;5.68;;;26.50;56.70;;;;;;5132776;27;20036;-40
2021/05/26 06:15:55;;;;;;;6.53;6.00;;;26.50;56.70;;;;;;5123591;28;20027;-42
2021/05/26 06:18:22;;;;;;;6.70;6.05;;;26.40;56.70;;;;;;5123182;28;20031;-41
2021/05/26 06:20:48;;;;;;;6.22;5.65;;;26.40;56.70;;;;;;5123063;28;20062;-41
2021/05/26 06:23:14;;;;;;;6.17;5.57;;;26.40;56.80;;;;;;5123137;28;20024;-41
2021/05/26 06:25:40;;;;;;;6.07;5.57;;;26.40;56.80;;;;;;5123305;28;20110;-41
2021/05/26 06:28:07;;;;;;;6.30;5.72;;;26.40;56.90;;;;;;5123001;28;20096;-39
2021/05/26 06:30:33;;;;;;;5.80;5.30;;;26.40;56.90;;;;;;5123248;28;20547;-40
2021/05/26 06:32:59;;;;;;;6.80;6.20;;;26.40;56.80;;;;;;5104422;28;20031;-39
2021/05/26 06:35:25;;;;;;;6.35;5.85;;;26.30;56.90;;;;;;5123010;28;20034;-39
2021/05/26 06:37:51;;;;;;;6.40;5.90;;;26.30;56.90;;;;;;5122669;28;20055;-40
2021/05/26 06:40:17;;;;;;;5.75;5.32;;;26.30;56.90;;;;;;5123042;28;20059;-39
2021/05/26 06:42:44;;;;;;;6.20;5.63;;;26.30;57.00;;;;;;5123223;28;20031;-40
2021/05/26 06:45:11;;;;;;;6.90;6.30;;;26.30;57.00;;;;;;5122517;28;20036;-40
2021/05/26 06:47:37;;;;;;;6.82;6.25;;;26.30;56.90;;;;;;5122998;28;20035;-40
2021/05/26 06:50:04;;;;;;;6.68;6.07;;;26.20;56.90;;;;;;5122838;28;20031;-39
2021/05/26 06:52:31;;;;;;;6.20;5.70;;;26.20;56.90;;;;;;5121045;28;20369;-39
2021/05/26 06:54:58;;;;;;;6.53;5.93;;;26.20;57.00;;;;;;5122829;28;20047;-38
2021/05/26 06:57:24;;;;;;;6.27;5.77;;;26.20;57.00;;;;;;5122733;28;20028;-40
2021/05/26 06:59:50;;;;;;;6.32;5.75;;;26.10;56.90;;;;;;5122478;28;20276;-39
2021/05/26 07:02:16;;;;;;;6.18;5.68;;;26.20;57.00;;;;;;5115859;28;20077;-39
2021/05/26 07:04:42;;;;;;;6.20;5.65;;;26.10;57.00;;;;;;5106693;28;20048;-40
2021/05/26 07:07:08;;;;;;;6.78;6.10;;;26.10;57.00;;;;;;5117315;28;20046;-39
2021/05/26 07:09:35;;;;;;;6.22;5.72;;;26.10;57.00;;;;;;5126165;28;20024;-39
2021/05/26 07:12:01;;;;;;;5.60;5.20;;;26.10;57.10;;;;;;5126587;28;20032;-40
2021/05/26 07:14:27;;;;;;;6.73;5.70;;;26.10;57.10;;;;;;5126825;28;20030;-40
2021/05/26 07:16:53;;;;;;;6.30;5.70;;;26.00;57.00;;;;;;5126891;28;20024;-41
2021/05/26 07:19:19;;;;;;;7.18;6.15;;;26.00;57.10;;;;;;5126557;28;20039;-42
2021/05/26 07:21:46;;;;;;;5.82;5.32;;;26.00;57.10;;;;;;5126941;28;20141;-39
2021/05/26 07:24:12;;;;;;;6.25;5.65;;;26.00;57.10;;;;;;5131245;27;20599;-39
2021/05/26 07:26:38;;;;;;;6.43;5.93;;;26.00;57.10;;;;;;5139958;27;20039;-40
2021/05/26 07:29:04;;;;;;;6.07;5.57;;;26.00;57.20;;;;;;5126112;28;20024;-39
2021/05/26 07:31:31;;;;;;;6.00;5.50;;;25.90;57.10;;;;;;5126179;28;20019;-40
2021/05/26 07:33:58;;;;;;;6.63;6.03;;;25.90;57.10;;;;;;5106198;28;20043;-39
2021/05/26 07:36:25;;;;;;;6.72;6.03;;;25.90;57.20;;;;;;5111018;28;20471;-39
2021/05/26 07:38:53;;;;;;;6.90;6.30;;;25.90;57.10;;;;;;5125911;28;20031;-39
2021/05/26 07:41:19;;;;;;;6.07;5.55;;;25.80;57.10;;;;;;5126227;28;20380;-39
2021/05/26 07:43:45;;;;;;;6.57;6.07;;;25.80;57.10;;;;;;5126421;28;20075;-39
2021/05/26 07:46:13;;;;;;;6.20;5.70;;;25.80;57.20;;;;;;5126044;28;20073;-39
2021/05/26 07:48:39;;;;;;;6.25;5.75;;;25.80;57.20;;;;;;5126252;28;20034;-39
2021/05/26 07:51:06;;;;;;;6.13;5.57;;;25.80;57.30;;;;;;5125672;28;20035;-40
2021/05/26 07:53:32;;;;;;;6.78;6.18;;;25.80;57.30;;;;;;5126167;28;20157;-40
2021/05/26 07:55:58;;;;;;;6.60;6.00;;;25.80;57.40;;;;;;5125859;28;20032;-40
2021/05/26 07:58:24;;;;;;;6.68;6.10;;;25.80;57.30;;;;;;5107698;28;20054;-41
2021/05/26 08:00:51;;;;;;;5.97;5.47;;;25.70;57.30;;;;;;5125709;28;20057;-40
2021/05/26 08:03:17;;;;;;;6.22;5.72;;;25.70;57.30;;;;;;5125885;28;20091;-43
2021/05/26 08:05:43;;;;;;;6.55;5.95;;;25.70;57.30;;;;;;5125873;28;20556;-40
2021/05/26 08:08:09;;;;;;;6.40;5.90;;;25.70;57.30;;;;;;5125833;28;20035;-42
2021/05/26 08:10:35;;;;;;;6.18;5.68;;;25.70;57.30;;;;;;5125617;28;20044;-44
2021/05/26 08:13:01;;;;;;;6.35;5.78;;;25.60;57.30;;;;;;5125255;28;20069;-41
2021/05/26 08:15:28;;;;;;;6.00;5.45;;;25.60;57.30;;;;;;5125812;28;20118;-40
2021/05/26 08:17:54;;;;;;;6.72;5.80;;;25.60;57.30;;;;;;5125611;28;20598;-42
2021/05/26 08:20:22;;;;;;;6.57;5.97;;;25.60;57.40;;;;;;5110897;27;20047;-40
2021/05/26 08:22:49;;;;;;;5.93;5.43;;;25.60;57.40;;;;;;5136885;27;20041;-41
2021/05/26 08:25:15;;;;;;;;;;;25.60;57.90;;;;;;5146332;27;20035;-42
2021/05/26 08:27:41;;;;;;;5.80;5.30;;;25.50;57.30;;;;;;5146178;27;20040;-40
2021/05/26 08:30:08;;;;;;;6.55;6.05;;;25.50;57.40;;;;;;5136102;27;20036;-45
2021/05/26 08:32:34;;;;;;;6.90;6.30;;;25.50;57.40;;;;;;5124691;28;20642;-40
2021/05/26 08:35:00;;;;;;;7.03;6.43;;;25.50;57.50;;;;;;5125304;28;20046;-41
2021/05/26 08:37:26;;;;;;;6.70;6.20;;;25.50;57.50;;;;;;5124987;28;20079;-42
2021/05/26 08:39:52;;;;;;;5.90;5.40;;;25.40;57.50;;;;;;5125084;28;20036;-40
2021/05/26 08:42:19;;;;;;;6.60;6.00;;;25.40;57.50;;;;;;5125211;28;20035;-40
2021/05/26 08:44:45;;;;;;;6.80;6.20;;;25.40;57.90;;;;;;5125300;28;20049;-40
2021/05/26 08:47:17;;;;;;;6.67;6.07;;;25.40;57.50;;;;;;5125237;28;20035;-42
2021/05/26 08:49:44;;;;;;;7.00;6.40;;;25.40;57.60;;;;;;5124869;28;20019;-40
2021/05/26 08:52:10;;;;;;;;;;;25.40;57.60;;;;;;5125323;28;20093;-40
2021/05/26 08:54:38;;;;;;;6.45;5.95;;;25.40;57.60;;;;;;5125098;28;19916;-40
2021/05/26 08:57:05;;;;;;;6.25;5.75;;;25.40;57.60;;;;;;5106901;28;20039;-40
2021/05/26 08:59:31;;;;;;;6.85;6.18;;;25.40;57.70;;;;;;5125217;28;20027;-41
2021/05/26 09:01:57;;;;;;;6.43;5.90;;;25.30;57.60;;;;;;5124820;28;20039;-41
2021/05/26 09:04:31;;;;;;;6.80;6.20;;;25.30;57.60;;;;;;5106415;28;20043;-40
2021/05/26 09:07:22;;;;;;;7.00;6.40;;;25.30;57.60;;;;;;5105734;28;20033;-40
2021/05/26 09:09:50;;;;;;;6.57;5.97;;;25.20;57.60;;;;;;5124678;28;20042;-41
2021/05/26 09:12:39;;;;;;;5.90;5.40;;;25.20;57.60;;;;;;5126311;27;20026;-40
2021/05/26 09:15:16;;;;;;;5.78;5.28;;;25.20;57.60;;;;;;5113901;28;20061;-41
2021/05/26 09:17:43;;;;;;;6.47;5.97;;;25.20;57.60;;;;;;5106126;28;20639;-40
2021/05/26 09:20:24;;;;;;;6.35;5.85;;;25.20;57.70;;;;;;5124195;28;20048;-41
2021/05/26 09:23:07;;;;;;;6.72;6.18;;;25.20;57.70;;;;;;5106833;28;20031;-40
2021/05/26 09:25:38;;;;;;;6.03;5.53;;;25.20;57.70;;;;;;5123348;28;20032;-40
2021/05/26 09:28:15;;;;;;;6.20;5.70;;;25.10;57.70;;;;;;5124337;28;20023;-41
2021/05/26 09:30:41;;;;;;;6.60;6.00;;;25.10;57.70;;;;;;5123946;28;20032;-40
2021/05/26 09:33:24;;;;;;;6.80;6.18;;;25.10;57.80;;;;;;5123707;28;20038;-40
2021/05/26 09:36:20;;;;;;;6.95;6.35;;;25.10;57.80;;;;;;5124222;28;20031;-41
2021/05/26 09:38:59;;;;;;;6.88;6.28;;;25.10;57.80;;;;;;5103774;28;20126;-40
2021/05/26 09:41:35;;;;;;;6.43;5.93;;;25.10;57.80;;;;;;5122259;28;20035;-40
2021/05/26 09:44:10;;;;;;;6.57;5.97;;;25.00;57.80;;;;;;5124089;28;20039;-41
2021/05/26 09:46:37;;;;;;;6.45;5.95;;;25.00;57.80;;;;;;5124021;28;20023;-40
2021/05/26 09:49:04;;;;;;;6.82;6.22;;;25.00;57.80;;;;;;5124205;28;20012;-40
2021/05/26 09:51:32;;;;;;;6.68;6.07;;;25.00;57.90;;;;;;5123493;28;20048;-41
2021/05/26 09:54:21;;;;;;;6.70;6.10;;;25.00;57.90;;;;;;5105853;28;20027;-42
2021/05/26 09:56:50;;;;;;;6.63;6.03;;;25.00;57.90;;;;;;5124059;28;20046;-41
2021/05/26 09:59:17;;;;;;;6.32;5.72;;;24.90;57.90;;;;;;5123813;28;20042;-40
2021/05/26 10:01:44;;;;;;;6.57;5.97;;;24.90;57.90;;;;;;5120632;28;20111;-40
2021/05/26 10:04:10;;;;;;;6.27;5.73;;;24.90;57.90;;;;;;5103212;28;20032;-40
2021/05/26 10:06:41;;;;;;;6.67;6.07;;;24.90;57.90;;;;;;5109807;28;20046;-42
2021/05/26 10:09:11;;;;;;;6.60;6.03;;;24.90;57.90;;;;;;5123749;28;20038;-41
2021/05/26 10:11:37;;;;;;;6.43;5.82;;;24.90;57.90;;;;;;5085422;28;20032;-40
2021/05/26 10:14:11;;;;;;;6.60;6.00;;;24.80;57.90;;;;;;5103328;28;20052;-41
2021/05/26 10:16:41;;;;;;;6.97;6.38;;;24.80;58.00;;;;;;5103145;28;20024;-39
2021/05/26 10:19:07;;;;;;;6.40;5.90;;;24.80;58.00;;;;;;5102841;28;20030;-40
2021/05/26 10:21:33;;;;;;;6.82;6.22;;;24.80;58.00;;;;;;5140284;27;20115;-40
2021/05/26 10:24:05;;;;;;;6.90;6.25;;;24.80;58.00;;;;;;5125598;27;20020;-40
2021/05/26 10:29:31;;;;;;;6.75;6.15;;;24.80;58.10;;;;;;5123406;28;20045;-40
2021/05/26 10:32:01;;;;;;;7.82;6.35;;;24.70;58.10;;;;;;5122576;28;20032;-40
2021/05/26 10:34:43;;;;;;;6.78;6.18;;;24.70;58.10;;;;;;5123165;28;20024;-42
2021/05/26 10:37:10;;;;;;;6.38;5.88;;;24.70;58.10;;;;;;5123168;28;20024;-40
2021/05/26 10:39:36;;;;;;;6.45;5.88;;;24.70;58.10;;;;;;5123288;28;20055;-41
2021/05/26 10:42:04;;;;;;;6.57;6.05;;;24.60;58.20;;;;;;5123042;28;20036;-40
2021/05/26 10:44:55;;;;;;;6.07;5.57;;;24.60;58.20;;;;;;5123380;28;20031;-40
2021/05/26 10:47:36;;;;;;;6.80;6.18;;;24.60;58.20;;;;;;5123259;28;20095;-41
2021/05/26 10:50:15;;;;;;;6.80;6.20;;;24.60;58.20;;;;;;5123155;28;20027;-40
2021/05/26 10:52:57;;;;;;;6.30;5.70;;;24.60;58.30;;;;;;5122858;28;20126;-40
2021/05/26 10:55:39;;;;;;;6.40;5.80;;;24.60;58.30;;;;;;5123171;28;20032;-41
2021/05/26 10:58:15;;;;;;;6.55;5.95;;;24.50;58.30;;;;;;5122452;28;20020;-40
2021/05/26 11:00:43;;;;;;;7.50;6.80;;;24.50;58.30;;;;;;5122999;28;20042;-41
2021/05/26 11:03:28;;;;;;;7.38;6.68;;;24.50;58.30;;;;;;5107689;28;20040;-43
2021/05/26 11:05:59;;;;;;;6.70;6.13;;;24.50;58.30;;;;;;5102573;28;20036;-41
2021/05/26 11:08:47;;;;;;;6.90;6.20;;;24.50;58.30;;;;;;5102659;28;20031;-41
2021/05/26 11:11:26;;;;;;;7.03;6.43;;;24.50;58.30;;;;;;5118597;28;20111;-40
2021/05/26 11:14:04;;;;;;;7.28;6.57;;;24.40;58.30;;;;;;5121699;28;20087;-40
2021/05/26 11:16:52;;;;;;;6.95;6.35;;;24.50;58.40;;;;;;5102320;28;20036;-40
2021/05/26 11:19:23;;;;;;;7.03;6.43;;;24.40;58.30;;;;;;5102393;28;20043;-40
2021/05/26 11:21:56;;;;;;;6.57;5.97;;;24.40;58.30;;;;;;5102400;28;20088;-40
2021/05/26 11:24:25;;;;;;;6.70;6.10;;;24.40;58.30;;;;;;5112846;28;20073;-41
2021/05/26 11:26:51;;;;;;;6.53;6.03;;;24.40;58.40;;;;;;5129230;28;20056;-41
2021/05/26 11:29:30;;;;;;;7.22;6.57;;;24.40;58.40;;;;;;5120062;28;20047;-40
2021/05/26 11:32:13;;;;;;;6.38;5.88;;;24.40;58.40;;;;;;5105835;28;20083;-41
2021/05/26 11:34:49;;;;;;;6.70;6.05;;;24.30;58.40;;;;;;5122691;28;20069;-40
2021/05/26 11:37:31;;;;;;;7.07;6.20;;;24.30;59.00;;;;;;5105162;28;20016;-41
2021/05/26 11:39:58;;;;;;;6.30;5.70;;;24.30;58.50;;;;;;5122881;28;20024;-40
2021/05/26 11:42:26;;;;;;;6.70;6.00;;;24.30;58.50;;;;;;5104182;28;20063;-39
2021/05/26 11:44:57;;;;;;;6.78;6.18;;;24.30;58.40;;;;;;5104491;28;20032;-39
2021/05/26 11:47:30;;;;;;;6.32;5.78;;;24.30;58.50;;;;;;5122668;28;20035;-40
2021/05/26 11:49:59;;;;;;;6.30;5.80;;;24.30;58.50;;;;;;5125689;28;20027;-40
2021/05/26 12:03:48;;;;;;;7.20;6.60;;;24.30;58.00;;;;;;5161488;27;20399;-41
2021/05/26 12:06:18;;;;;;;6.30;5.70;;;24.30;58.30;;;;;;5160457;27;20069;-41
2021/05/26 12:08:44;;;;;;;7.15;6.55;;;24.30;58.20;;;;;;5160417;27;20027;-39
2021/05/26 12:11:13;;;;;;;6.47;5.97;;;24.30;58.20;;;;;;5161857;27;20026;-40
2021/05/26 12:13:41;;;;;;;7.15;6.47;;;24.30;58.20;;;;;;5144471;27;20248;-40
2021/05/26 12:16:09;;;;;;;6.25;5.75;;;24.30;58.40;;;;;;5140768;27;20088;-39
2021/05/26 12:18:35;;;;;;;6.85;6.25;;;24.20;58.30;;;;;;5139799;28;20019;-41
2021/05/26 12:21:02;;;;;;;6.65;6.05;;;24.20;58.40;;;;;;5141092;27;20027;-41
2021/05/26 12:23:45;;;;;;;7.30;6.60;;;24.20;58.40;;;;;;5156688;27;20055;-42
2021/05/26 12:26:28;;;;;;;6.50;5.95;;;24.20;58.60;;;;;;5140596;27;20069;-40
2021/05/26 12:28:55;;;;;;;7.32;6.63;;;24.20;58.50;;;;;;5140827;27;20019;-41
2021/05/26 12:31:22;;;;;;;6.97;6.38;;;24.20;58.50;;;;;;5140729;27;20035;-40
2021/05/26 12:33:52;;;;;;;6.53;5.93;;;24.10;58.50;;;;;;5140862;27;20015;-40
2021/05/26 12:36:24;;;;;;;6.68;6.07;;;24.10;58.60;;;;;;5140663;27;20027;-40
2021/05/26 12:38:57;;;;;;;6.82;6.22;;;24.10;58.60;;;;;;5139048;28;20031;-43
2021/05/26 12:41:24;;;;;;;6.53;5.93;;;24.10;58.60;;;;;;5140643;27;20062;-41
2021/05/26 12:43:51;;;;;;;6.80;6.20;;;24.20;58.80;;;;;;5140417;27;20024;-40
2021/05/26 12:46:36;;;;;;;7.38;6.70;;;24.20;58.70;;;;;;5140261;27;20051;-40
2021/05/26 12:49:04;;;;;;;7.05;6.45;;;24.10;58.80;;;;;;5140570;28;20047;-40
2021/05/26 12:51:45;;;;;;;7.10;6.50;;;24.20;58.90;;;;;;5156092;27;20031;-40
2021/05/26 12:54:12;;;;;;;6.78;6.18;;;24.20;58.90;;;;;;5138720;27;20032;-41
2021/05/26 12:56:38;;;;;;;6.40;5.88;;;24.20;58.90;;;;;;5140291;27;20031;-41
2021/05/26 12:59:04;;;;;;;7.03;6.43;;;24.20;58.90;;;;;;5140407;28;20090;-40
2021/05/26 13:01:31;;;;;;;7.18;6.53;;;24.20;58.90;;;;;;5138811;28;20059;-40
2021/05/26 13:04:23;;;;;;;7.55;6.85;;;24.20;58.80;;;;;;5129465;28;20046;-41
2021/05/26 13:06:49;;;;;;;6.90;6.35;;;24.20;58.90;;;;;;5126005;28;20030;-40
2021/05/26 13:09:16;;;;;;;7.43;6.72;;;24.20;58.90;;;;;;5125683;28;20100;-40
2021/05/26 13:11:46;;;;;;;7.15;6.47;;;24.20;58.90;;;;;;5124894;28;20065;-40